createdAt,value
2022-09-26T00:01:12.438Z,30.10
2022-09-26T00:03:44.704Z,27.80
2022-09-26T00:06:13.089Z,27.87
2022-09-26T00:08:41.568Z,28.00
2022-09-26T00:11:10.951Z,28.67
2022-09-26T00:13:41.511Z,31.77
2022-09-26T00:16:10.555Z,28.77
2022-09-26T00:18:38.564Z,28.30
2022-09-26T00:21:10.941Z,30.73
2022-09-26T00:23:39.075Z,32.23
2022-09-26T00:26:07.696Z,29.73
2022-09-26T00:28:35.836Z,31.67
2022-09-26T00:31:05.525Z,31.10
2022-09-26T00:33:34.033Z,32.80
2022-09-26T00:36:02.418Z,30.47
2022-09-26T00:38:31.725Z,31.80
2022-09-26T00:41:00.091Z,31.47
2022-09-26T00:43:30.883Z,31.40
2022-09-26T00:46:02.805Z,33.17
2022-09-26T00:48:32.013Z,33.13
2022-09-26T00:51:01.078Z,33.33
2022-09-26T00:53:37.129Z,32.47
2022-09-26T00:56:10.006Z,32.30
2022-09-26T00:58:43.249Z,32.80
2022-09-26T01:01:11.453Z,30.77
2022-09-26T01:03:42.506Z,31.70
2022-09-26T01:06:10.620Z,32.23
2022-09-26T01:08:42.765Z,30.53
2022-09-26T01:11:17.080Z,31.20
2022-09-26T01:13:46.247Z,31.63
2022-09-26T01:16:14.238Z,28.93
2022-09-26T01:18:42.929Z,29.63
2022-09-26T01:21:33.826Z,30.10
2022-09-26T01:24:26.708Z,28.40
2022-09-26T01:27:10.566Z,26.77
2022-09-26T01:30:08.615Z,28.77
2022-09-26T01:32:59.836Z,28.23
2022-09-26T01:35:42.092Z,26.27
2022-09-26T01:38:23.981Z,27.77
2022-09-26T01:41:06.034Z,27.90
2022-09-26T01:43:39.542Z,27.33
2022-09-26T01:46:18.012Z,28.37
2022-09-26T01:48:49.430Z,27.80
2022-09-26T01:51:23.626Z,24.40
2022-09-26T01:53:57.036Z,26.30
2022-09-26T01:56:29.472Z,25.37
2022-09-26T01:59:03.762Z,26.50
2022-09-26T02:01:37.367Z,24.17
2022-09-26T02:04:10.553Z,25.73
2022-09-26T02:06:43.755Z,24.40
2022-09-26T02:09:16.791Z,23.90
2022-09-26T02:11:49.736Z,23.63
2022-09-26T02:14:22.723Z,24.17
2022-09-26T02:16:54.700Z,24.83
2022-09-26T02:19:26.668Z,23.20
2022-09-26T02:21:55.436Z,24.50
2022-09-26T02:24:24.538Z,24.03
2022-09-26T02:26:53.249Z,23.80
2022-09-26T02:29:22.818Z,23.97
2022-09-26T02:31:56.611Z,26.70
2022-09-26T02:34:26.421Z,25.20
2022-09-26T02:36:55.684Z,24.97
2022-09-26T02:39:23.819Z,22.40
2022-09-26T02:41:58.391Z,24.77
2022-09-26T02:44:36.838Z,24.00
2022-09-26T02:47:32.358Z,23.73
2022-09-26T02:50:18.080Z,23.10
2022-09-26T02:52:55.923Z,24.97
2022-09-26T02:55:28.721Z,21.87
2022-09-26T02:58:07.215Z,23.10
2022-09-26T03:00:46.060Z,24.83
2022-09-26T03:03:22.467Z,22.83
2022-09-26T03:05:55.018Z,23.90
2022-09-26T03:08:26.319Z,24.40
2022-09-26T03:10:57.400Z,24.03
2022-09-26T03:13:25.887Z,24.57
2022-09-26T03:15:55.958Z,26.07
2022-09-26T03:18:30.318Z,24.00
2022-09-26T03:20:58.308Z,26.77
2022-09-26T03:23:27.689Z,26.57
2022-09-26T03:26:02.000Z,25.43
2022-09-26T03:28:35.331Z,26.80
2022-09-26T03:31:05.979Z,28.30
2022-09-26T03:33:35.346Z,25.40
2022-09-26T03:36:07.433Z,24.47
2022-09-26T03:38:35.383Z,28.93
2022-09-26T03:41:03.505Z,27.97
2022-09-26T03:43:31.582Z,28.07
2022-09-26T03:46:03.575Z,27.53
2022-09-26T03:48:31.667Z,28.77
2022-09-26T03:51:04.787Z,26.13
2022-09-26T03:53:34.080Z,28.43
2022-09-26T03:56:07.248Z,27.77
2022-09-26T03:58:35.795Z,29.23
2022-09-26T04:01:05.242Z,29.03
2022-09-26T04:03:37.133Z,30.50
2022-09-26T04:06:08.510Z,30.87
2022-09-26T04:08:37.369Z,30.27
2022-09-26T04:11:07.261Z,32.73
2022-09-26T04:13:52.876Z,32.83
2022-09-26T04:16:22.823Z,35.30
2022-09-26T04:18:51.550Z,31.33
2022-09-26T04:21:20.858Z,32.80
2022-09-26T04:23:49.611Z,31.13
2022-09-26T04:26:23.187Z,35.57
2022-09-26T04:28:55.075Z,34.33
2022-09-26T04:31:23.643Z,32.10
2022-09-26T04:33:52.088Z,31.33
2022-09-26T04:36:21.468Z,31.17
2022-09-26T04:38:49.472Z,34.23
2022-09-26T04:41:18.820Z,33.97
2022-09-26T04:43:47.235Z,32.53
2022-09-26T04:46:21.113Z,32.50
2022-09-26T04:48:50.227Z,32.93
2022-09-26T04:51:19.423Z,31.87
2022-09-26T04:53:50.435Z,33.57
2022-09-26T04:56:20.727Z,30.73
2022-09-26T04:58:48.734Z,32.23
2022-09-26T05:01:19.072Z,30.23
2022-09-26T05:03:47.390Z,31.57
2022-09-26T05:06:17.640Z,33.70
2022-09-26T05:08:48.508Z,33.73
2022-09-26T05:11:19.735Z,32.43
2022-09-26T05:13:53.556Z,31.13
2022-09-26T05:16:22.791Z,29.80
2022-09-26T05:18:51.724Z,31.47
2022-09-26T05:21:20.080Z,29.27
2022-09-26T05:24:05.421Z,32.53
2022-09-26T05:26:41.519Z,30.63
2022-09-26T05:29:09.864Z,32.47
2022-09-26T05:31:38.440Z,32.27
2022-09-26T05:34:07.583Z,30.37
2022-09-26T05:36:36.097Z,28.90
2022-09-26T05:39:04.547Z,32.53
2022-09-26T05:41:33.819Z,29.73
2022-09-26T05:44:01.960Z,29.13
2022-09-26T05:46:31.925Z,30.70
2022-09-26T05:48:59.944Z,28.07
2022-09-26T05:51:29.398Z,30.47
2022-09-26T05:53:57.431Z,29.43
2022-09-26T05:56:25.401Z,30.27
2022-09-26T05:58:55.215Z,31.40
2022-09-26T06:01:23.285Z,30.10
2022-09-26T06:03:51.396Z,31.50
2022-09-26T06:06:21.289Z,31.03
2022-09-26T06:08:50.095Z,30.57
2022-09-26T06:11:20.821Z,29.83
2022-09-26T06:13:48.802Z,31.00
2022-09-26T06:16:20.185Z,30.70
2022-09-26T06:18:49.372Z,27.47
2022-09-26T06:21:19.147Z,28.43
2022-09-26T06:23:47.354Z,27.40
2022-09-26T06:26:21.626Z,27.80
2022-09-26T06:28:51.415Z,28.27
2022-09-26T06:31:22.084Z,27.73
2022-09-26T06:33:53.286Z,26.50
2022-09-26T06:36:22.423Z,27.50
2022-09-26T06:38:50.689Z,27.83
2022-09-26T06:41:19.384Z,25.03
2022-09-26T06:43:49.111Z,24.23
2022-09-26T06:46:17.672Z,26.10
2022-09-26T06:48:47.113Z,26.00
2022-09-26T06:51:15.299Z,27.70
2022-09-26T06:53:45.930Z,28.13
2022-09-26T06:56:14.785Z,29.03
2022-09-26T06:58:43.047Z,28.77
2022-09-26T07:01:11.242Z,28.23
2022-09-26T07:03:45.191Z,30.80
2022-09-26T07:06:15.173Z,30.23
2022-09-26T07:09:01.549Z,28.52
2022-09-26T07:11:41.897Z,28.80
2022-09-26T07:14:18.703Z,29.80
2022-09-26T07:16:46.978Z,30.97
2022-09-26T07:19:16.195Z,29.60
2022-09-26T07:21:46.318Z,29.52
2022-09-26T07:24:14.500Z,29.83
2022-09-26T07:26:43.179Z,29.83
2022-09-26T07:29:12.418Z,28.38
2022-09-26T07:31:40.604Z,27.92
2022-09-26T07:34:09.022Z,27.40
2022-09-26T07:36:38.925Z,28.42
2022-09-26T07:39:08.229Z,26.58
2022-09-26T07:41:36.666Z,27.80
2022-09-26T07:44:59.352Z,26.13
2022-09-26T07:47:10.166Z,24.83
2022-09-26T07:49:55.524Z,25.13
2022-09-26T07:52:23.645Z,24.43
2022-09-26T07:54:53.001Z,24.42
2022-09-26T07:57:20.977Z,22.48
2022-09-26T07:59:50.413Z,24.50
2022-09-26T08:02:25.990Z,23.27
2022-09-26T08:05:00.247Z,23.00
2022-09-26T08:07:29.561Z,23.35
2022-09-26T08:10:01.808Z,21.67
2022-09-26T08:12:30.173Z,21.23
2022-09-26T08:14:58.332Z,21.20
2022-09-26T08:17:26.299Z,20.33
2022-09-26T08:19:54.511Z,20.17
2022-09-26T08:22:22.508Z,20.95
2022-09-26T08:24:50.992Z,20.65
2022-09-26T08:27:22.777Z,20.52
2022-09-26T08:29:51.031Z,22.00
2022-09-26T08:32:20.367Z,19.67
2022-09-26T08:34:51.860Z,20.58
2022-09-26T08:37:29.559Z,18.00
2022-09-26T08:39:57.816Z,19.02
2022-09-26T08:42:41.975Z,18.92
2022-09-26T08:45:48.061Z,17.77
2022-09-26T08:48:28.517Z,18.15
2022-09-26T08:51:02.656Z,19.50
2022-09-26T08:53:41.689Z,20.60
2022-09-26T08:56:18.305Z,17.73
2022-09-26T08:58:52.414Z,20.23
2022-09-26T09:01:32.226Z,18.98
2022-09-26T09:04:11.695Z,20.17
2022-09-26T09:06:39.795Z,20.83
2022-09-26T09:09:08.511Z,19.20
2022-09-26T09:11:54.757Z,20.83
2022-09-26T09:14:40.756Z,19.75
2022-09-26T09:17:18.605Z,20.98
2022-09-26T09:19:54.268Z,19.55
2022-09-26T09:22:49.259Z,19.20
2022-09-26T09:25:22.519Z,20.25
2022-09-26T09:28:08.294Z,20.40
2022-09-26T09:30:44.172Z,21.08
2022-09-26T09:33:16.769Z,21.17
2022-09-26T09:35:49.976Z,21.50
2022-09-26T09:38:20.751Z,21.25
2022-09-26T09:40:54.264Z,23.00
2022-09-26T09:43:31.079Z,20.92
2022-09-26T09:46:05.122Z,26.10
2022-09-26T09:48:33.224Z,26.85
2022-09-26T09:51:26.375Z,29.23
2022-09-26T09:54:15.470Z,27.10
2022-09-26T09:56:53.123Z,28.33
2022-09-26T09:59:34.643Z,25.63
2022-09-26T10:02:19.973Z,28.27
2022-09-26T10:04:56.545Z,27.42
2022-09-26T10:07:24.566Z,21.70
2022-09-26T10:09:53.351Z,23.83
2022-09-26T10:12:26.922Z,18.48
2022-09-26T10:14:57.586Z,18.67
2022-09-26T10:17:29.569Z,16.48
2022-09-26T10:19:57.716Z,16.25
2022-09-26T10:22:32.770Z,14.57
2022-09-26T10:25:08.594Z,15.57
2022-09-26T10:27:42.874Z,14.77
2022-09-26T10:30:30.396Z,16.63
2022-09-26T10:33:03.546Z,15.85
2022-09-26T10:35:42.553Z,14.60
2022-09-26T10:38:21.141Z,14.23
2022-09-26T10:40:54.900Z,15.77
2022-09-26T10:43:25.936Z,14.85
2022-09-26T10:45:57.374Z,13.27
2022-09-26T10:48:48.048Z,12.07
2022-09-26T10:51:20.788Z,11.80
2022-09-26T10:53:52.910Z,12.25
2022-09-26T10:56:26.339Z,11.07
2022-09-26T10:58:59.357Z,11.73
2022-09-26T11:01:31.264Z,11.75
2022-09-26T11:04:14.285Z,11.77
2022-09-26T11:06:44.211Z,11.00
2022-09-26T11:09:20.496Z,13.55
2022-09-26T11:11:50.685Z,11.10
2022-09-26T11:14:28.362Z,11.15
2022-09-26T11:16:57.395Z,11.43
2022-09-26T11:19:39.094Z,12.32
2022-09-26T11:22:14.621Z,11.57
2022-09-26T11:24:48.667Z,11.25
2022-09-26T11:27:24.532Z,11.73
2022-09-26T11:29:56.760Z,11.23
2022-09-26T11:32:31.134Z,11.40
2022-09-26T11:35:03.680Z,9.68
2022-09-26T11:38:05.562Z,9.18
2022-09-26T11:40:48.657Z,9.63
2022-09-26T11:43:32.087Z,9.07
2022-09-26T11:46:23.002Z,8.25
2022-09-26T11:49:10.600Z,8.68
2022-09-26T11:51:51.304Z,7.78
2022-09-26T11:54:45.671Z,7.63
2022-09-26T11:57:34.156Z,7.32
2022-09-26T12:00:12.955Z,7.63
2022-09-26T12:02:57.585Z,7.47
2022-09-26T12:05:33.102Z,6.53
2022-09-26T12:08:15.856Z,6.30
2022-09-26T12:10:53.363Z,6.65
2022-09-26T12:13:34.402Z,6.43
2022-09-26T12:16:12.296Z,6.45
2022-09-26T12:18:50.081Z,6.55
2022-09-26T12:21:26.887Z,6.68
2022-09-26T12:23:58.897Z,6.70
2022-09-26T12:26:35.078Z,6.97
2022-09-26T12:29:24.100Z,6.78
2022-09-26T12:32:06.431Z,6.82
2022-09-26T12:34:50.447Z,7.30
2022-09-26T12:37:37.300Z,7.43
2022-09-26T12:40:22.921Z,7.07
2022-09-26T12:43:14.454Z,7.60
2022-09-26T12:46:03.888Z,6.75
2022-09-26T12:48:41.280Z,7.70
2022-09-26T12:51:22.520Z,7.47
2022-09-26T12:54:26.872Z,7.10
2022-09-26T12:57:04.510Z,6.57
2022-09-26T13:00:00.780Z,6.90
2022-09-26T13:02:55.846Z,7.18
2022-09-26T13:05:45.583Z,6.65
2022-09-26T13:08:17.391Z,7.47
2022-09-26T13:10:58.292Z,7.68
2022-09-26T13:13:46.408Z,6.50
2022-09-26T13:16:25.400Z,6.30
2022-09-26T13:18:59.998Z,5.97
2022-09-26T13:21:44.166Z,5.78
2022-09-26T13:24:18.694Z,5.82
2022-09-26T13:26:52.270Z,6.43
2022-09-26T13:29:27.134Z,5.70
2022-09-26T13:32:04.496Z,5.78
2022-09-26T13:34:37.567Z,5.25
2022-09-26T13:37:09.940Z,5.50
2022-09-26T13:39:44.636Z,5.90
2022-09-26T13:42:20.212Z,6.43
2022-09-26T13:45:02.486Z,5.93
2022-09-26T13:47:39.604Z,6.63
2022-09-26T13:50:23.464Z,6.60
2022-09-26T13:53:06.803Z,6.80
2022-09-26T13:55:36.498Z,7.32
2022-09-26T13:58:21.484Z,7.30
2022-09-26T14:00:55.044Z,7.28
2022-09-26T14:03:43.149Z,7.93
2022-09-26T14:06:32.551Z,6.57
2022-09-26T14:09:25.878Z,6.97
2022-09-26T14:12:19.203Z,6.43
2022-09-26T14:14:53.221Z,6.85
2022-09-26T14:18:03.446Z,7.82
2022-09-26T14:20:39.543Z,7.30
2022-09-26T14:23:36.961Z,7.63
2022-09-26T14:26:10.675Z,8.00
2022-09-26T14:28:40.034Z,7.80
2022-09-26T14:31:17.522Z,7.97
2022-09-26T14:33:47.172Z,8.20
2022-09-26T14:36:25.812Z,8.35
2022-09-26T14:38:55.503Z,9.23
2022-09-26T14:41:28.095Z,8.90
2022-09-26T14:44:01.385Z,8.73
2022-09-26T14:46:33.053Z,9.52
2022-09-26T14:49:05.352Z,8.98
2022-09-26T14:51:37.118Z,9.80
2022-09-26T14:54:08.989Z,9.32
2022-09-26T14:56:45.322Z,9.93
2022-09-26T14:59:40.233Z,10.50
2022-09-26T15:02:38.683Z,9.93
2022-09-26T15:05:28.241Z,10.18
2022-09-26T15:08:00.552Z,11.52
2022-09-26T15:10:40.242Z,12.35
2022-09-26T15:13:29.578Z,11.68
2022-09-26T15:16:08.156Z,10.48
2022-09-26T15:18:39.721Z,8.85
2022-09-26T15:21:19.136Z,8.65
2022-09-26T15:23:50.427Z,7.97
2022-09-26T15:26:23.236Z,8.18
2022-09-26T15:28:53.255Z,8.88
2022-09-26T15:31:28.177Z,9.15
2022-09-26T15:34:00.590Z,17.17
2022-09-26T15:36:36.349Z,19.58
2022-09-26T15:39:35.785Z,19.33
2022-09-26T15:42:32.097Z,19.27
2022-09-26T15:45:02.847Z,13.10
2022-09-26T15:47:42.158Z,12.23
2022-09-26T15:50:23.759Z,12.82
2022-09-26T15:52:56.729Z,11.77
2022-09-26T15:55:31.535Z,9.57
2022-09-26T15:58:02.918Z,8.57
2022-09-26T16:00:34.163Z,9.10
2022-09-26T16:03:20.897Z,8.85
2022-09-26T16:05:49.779Z,7.88
2022-09-26T16:08:23.516Z,7.80
2022-09-26T16:10:59.572Z,8.00
2022-09-26T16:13:31.501Z,7.38
2022-09-26T16:16:04.301Z,8.00
2022-09-26T16:18:39.674Z,8.30
2022-09-26T16:21:19.700Z,8.13
2022-09-26T16:23:49.492Z,9.57
2022-09-26T16:26:31.181Z,8.82
2022-09-26T16:29:00.389Z,11.02
2022-09-26T16:31:36.420Z,8.43
2022-09-26T16:34:06.917Z,8.82
2022-09-26T16:36:35.880Z,8.77
2022-09-26T16:39:07.264Z,11.40
2022-09-26T16:44:35.451Z,10.60
2022-09-26T16:47:06.403Z,9.13
2022-09-26T16:49:46.156Z,8.68
2022-09-26T16:52:28.178Z,8.50
2022-09-26T16:54:57.417Z,7.63
2022-09-26T16:57:29.401Z,8.70
2022-09-26T17:00:22.651Z,9.35
2022-09-26T17:02:49.746Z,9.35
2022-09-26T17:05:20.219Z,9.45
2022-09-26T17:07:49.886Z,10.57
2022-09-26T17:10:19.649Z,10.10
2022-09-26T17:12:50.619Z,10.05
2022-09-26T17:15:22.118Z,11.48
2022-09-26T17:17:53.533Z,11.75
2022-09-26T17:20:22.369Z,11.00
2022-09-26T17:22:50.525Z,12.57
2022-09-26T17:25:18.946Z,10.85
2022-09-26T17:27:52.216Z,10.95
2022-09-26T17:30:20.816Z,11.18
2022-09-26T17:32:51.089Z,12.40
2022-09-26T17:35:25.341Z,12.95
2022-09-26T17:37:53.698Z,13.60
2022-09-26T17:40:24.147Z,14.73
2022-09-26T17:42:55.358Z,16.10
2022-09-26T17:45:28.830Z,16.77
2022-09-26T17:47:58.888Z,22.63
2022-09-26T17:50:30.110Z,20.87
2022-09-26T17:52:58.922Z,23.85
2022-09-26T17:55:27.354Z,21.87
2022-09-26T17:57:58.355Z,23.13
2022-09-26T18:00:26.822Z,26.03
2022-09-26T18:03:00.431Z,24.57
2022-09-26T18:05:34.067Z,27.50
2022-09-26T18:08:06.786Z,25.20
2022-09-26T18:10:38.336Z,29.67
2022-09-26T18:13:13.422Z,27.07
2022-09-26T18:15:42.077Z,25.10
2022-09-26T18:18:13.927Z,26.03
2022-09-26T18:20:42.432Z,26.80
2022-09-26T18:23:16.986Z,28.23
2022-09-26T18:25:47.131Z,29.90
2022-09-26T18:28:20.491Z,27.13
2022-09-26T18:30:54.371Z,27.83
2022-09-26T18:33:27.741Z,25.80
2022-09-26T18:35:55.845Z,24.60
2022-09-26T18:38:23.788Z,23.90
2022-09-26T18:40:55.268Z,24.13
2022-09-26T18:43:27.774Z,23.53
2022-09-26T18:45:57.584Z,24.97
2022-09-26T18:48:28.959Z,24.40
2022-09-26T18:50:57.642Z,25.57
2022-09-26T18:53:29.482Z,26.03
2022-09-26T18:56:14.932Z,26.67
2022-09-26T18:58:48.365Z,27.10
2022-09-26T19:01:22.446Z,27.57
2022-09-26T19:03:50.654Z,25.47
2022-09-26T19:06:20.774Z,25.53
2022-09-26T19:08:50.974Z,26.53
2022-09-26T19:11:20.615Z,26.37
2022-09-26T19:13:51.725Z,28.20
2022-09-26T19:16:20.513Z,30.10
2022-09-26T19:18:49.045Z,32.37
2022-09-26T19:21:24.319Z,32.33
2022-09-26T19:23:53.259Z,32.73
2022-09-26T19:26:27.309Z,31.50
2022-09-26T19:28:59.239Z,31.97
2022-09-26T19:31:28.201Z,28.93
2022-09-26T19:33:57.349Z,28.03
2022-09-26T19:36:25.395Z,28.53
2022-09-26T19:38:53.317Z,25.07
2022-09-26T19:41:22.113Z,25.83
2022-09-26T19:43:50.101Z,24.50
2022-09-26T19:46:27.558Z,23.33
2022-09-26T19:48:55.590Z,23.87
2022-09-26T19:51:24.696Z,24.97
2022-09-26T19:53:52.916Z,21.27
2022-09-26T19:56:20.903Z,22.93
2022-09-26T19:58:50.383Z,20.67
2022-09-26T20:01:22.908Z,21.07
2022-09-26T20:03:51.597Z,21.17
2022-09-26T20:06:22.176Z,19.92
2022-09-26T20:08:51.098Z,19.85
2022-09-26T20:11:19.380Z,18.93
2022-09-26T20:14:05.028Z,19.55
2022-09-26T20:16:36.039Z,19.23
2022-09-26T20:19:05.276Z,17.90
2022-09-26T20:21:34.413Z,17.83
2022-09-26T20:24:02.793Z,17.27
2022-09-26T20:26:32.740Z,17.80
2022-09-26T20:29:00.745Z,16.90
2022-09-26T20:31:30.081Z,18.65
2022-09-26T20:34:00.060Z,17.85
2022-09-26T20:36:31.738Z,20.20
2022-09-26T20:39:03.235Z,17.17
2022-09-26T20:41:34.061Z,16.92
2022-09-26T20:44:05.332Z,18.03
2022-09-26T20:46:35.828Z,17.63
2022-09-26T20:49:09.781Z,17.40
2022-09-26T20:51:38.474Z,17.30
2022-09-26T20:54:07.197Z,16.87
2022-09-26T20:56:35.327Z,18.03
2022-09-26T20:59:03.296Z,17.60
2022-09-26T21:01:31.328Z,17.67
2022-09-26T21:03:59.346Z,15.87
2022-09-26T21:06:33.583Z,16.00
2022-09-26T21:09:02.659Z,18.00
2022-09-26T21:11:30.621Z,18.07
2022-09-26T21:13:58.545Z,19.80
2022-09-26T21:16:26.898Z,18.67
2022-09-26T21:18:54.976Z,19.10
2022-09-26T21:21:25.310Z,19.37
2022-09-26T21:23:55.161Z,18.80
2022-09-26T21:26:24.975Z,18.93
2022-09-26T21:28:54.987Z,20.23
2022-09-26T21:31:25.942Z,18.90
2022-09-26T21:33:54.322Z,21.10
2022-09-26T21:36:22.435Z,22.23
2022-09-26T21:38:52.700Z,22.60
2022-09-26T21:41:22.268Z,20.83
2022-09-26T21:43:55.024Z,21.23
2022-09-26T21:46:25.195Z,21.97
2022-09-26T21:48:53.983Z,21.73
2022-09-26T21:51:23.472Z,19.83
2022-09-26T21:53:56.299Z,21.10
2022-09-26T21:56:29.990Z,18.70
2022-09-26T21:58:58.583Z,19.30
2022-09-26T22:01:26.706Z,19.47
2022-09-26T22:03:54.909Z,19.10
2022-09-26T22:06:22.880Z,19.93
2022-09-26T22:08:51.326Z,19.43
2022-09-26T22:11:19.270Z,20.07
2022-09-26T22:13:48.612Z,18.37
2022-09-26T22:16:17.054Z,18.20
2022-09-26T22:18:45.059Z,18.60
2022-09-26T22:21:14.087Z,19.20
2022-09-26T22:23:42.033Z,17.97
2022-09-26T22:26:10.543Z,18.77
2022-09-26T22:28:38.494Z,18.17
2022-09-26T22:31:08.045Z,19.17
2022-09-26T22:33:36.069Z,19.10
2022-09-26T22:36:04.823Z,18.00
2022-09-26T22:38:34.234Z,18.83
2022-09-26T22:41:04.065Z,18.93
2022-09-26T22:43:33.561Z,18.77
2022-09-26T22:46:03.208Z,18.37
2022-09-26T22:48:33.846Z,18.27
2022-09-26T22:51:01.840Z,18.20
2022-09-26T22:53:31.928Z,19.47
2022-09-26T22:56:05.168Z,17.03
2022-09-26T22:58:36.601Z,18.57
2022-09-26T23:01:05.375Z,19.33
2022-09-26T23:03:34.704Z,18.17
2022-09-26T23:06:03.072Z,18.40
2022-09-26T23:08:31.045Z,17.40
2022-09-26T23:10:59.187Z,17.27
2022-09-26T23:13:27.558Z,17.60
2022-09-26T23:15:56.141Z,17.67
2022-09-26T23:18:24.119Z,19.43
2022-09-26T23:20:53.381Z,18.53
2022-09-26T23:23:21.343Z,17.87
2022-09-26T23:25:51.160Z,18.37
2022-09-26T23:28:19.442Z,18.83
2022-09-26T23:30:47.599Z,19.37
2022-09-26T23:33:15.562Z,19.27
2022-09-26T23:35:43.842Z,20.43
2022-09-26T23:38:13.151Z,20.27
2022-09-26T23:40:41.134Z,20.10
2022-09-26T23:43:10.121Z,20.00
2022-09-26T23:45:38.076Z,19.63
2022-09-26T23:48:06.042Z,20.67
2022-09-26T23:50:34.014Z,19.83
2022-09-26T23:53:06.492Z,19.87
2022-09-26T23:55:36.168Z,18.97
2022-09-26T23:58:04.116Z,18.07
